sensor_id;sensor_type;location;lat;lon;timestamp;P1;durP1;ratioP1;P2;durP2;ratioP2
22129;SDS011;11231;50.746;4.272;2024-01-11T00:00:32;48.97;;;21.87;;
22129;SDS011;11231;50.746;4.272;2024-01-11T00:02:58;45.07;;;20.67;;
22129;SDS011;11231;50.746;4.272;2024-01-11T00:05:24;45.37;;;19.73;;
22129;SDS011;11231;50.746;4.272;2024-01-11T00:07:50;44.33;;;19.53;;
22129;SDS011;11231;50.746;4.272;2024-01-11T00:10:16;44.83;;;20.37;;
22129;SDS011;11231;50.746;4.272;2024-01-11T00:12:42;43.67;;;18.87;;
22129;SDS011;11231;50.746;4.272;2024-01-11T00:15:08;41.43;;;19.97;;
22129;SDS011;11231;50.746;4.272;2024-01-11T00:17:33;42.03;;;20.33;;
22129;SDS011;11231;50.746;4.272;2024-01-11T00:20:01;43.03;;;19.23;;
22129;SDS011;11231;50.746;4.272;2024-01-11T00:22:27;43.73;;;19.27;;
22129;SDS011;11231;50.746;4.272;2024-01-11T00:24:54;42.57;;;20.30;;
22129;SDS011;11231;50.746;4.272;2024-01-11T00:27:20;48.70;;;21.33;;
22129;SDS011;11231;50.746;4.272;2024-01-11T00:29:46;42.40;;;19.53;;
22129;SDS011;11231;50.746;4.272;2024-01-11T00:32:12;45.70;;;20.33;;
22129;SDS011;11231;50.746;4.272;2024-01-11T00:34:38;43.60;;;20.53;;
22129;SDS011;11231;50.746;4.272;2024-01-11T00:37:04;47.43;;;21.70;;
22129;SDS011;11231;50.746;4.272;2024-01-11T00:39:30;42.63;;;19.83;;
22129;SDS011;11231;50.746;4.272;2024-01-11T00:41:55;48.30;;;21.90;;
22129;SDS011;11231;50.746;4.272;2024-01-11T00:44:22;42.93;;;20.50;;
22129;SDS011;11231;50.746;4.272;2024-01-11T00:46:48;44.80;;;20.20;;
22129;SDS011;11231;50.746;4.272;2024-01-11T00:49:14;45.20;;;21.07;;
22129;SDS011;11231;50.746;4.272;2024-01-11T00:51:40;40.63;;;20.53;;
22129;SDS011;11231;50.746;4.272;2024-01-11T00:54:05;44.73;;;20.53;;
22129;SDS011;11231;50.746;4.272;2024-01-11T00:56:31;40.33;;;19.90;;
22129;SDS011;11231;50.746;4.272;2024-01-11T00:58:57;44.03;;;20.23;;
22129;SDS011;11231;50.746;4.272;2024-01-11T01:01:23;43.87;;;19.90;;
22129;SDS011;11231;50.746;4.272;2024-01-11T01:03:48;45.13;;;20.63;;
22129;SDS011;11231;50.746;4.272;2024-01-11T01:06:14;41.90;;;19.63;;
22129;SDS011;11231;50.746;4.272;2024-01-11T01:08:40;45.40;;;19.60;;
22129;SDS011;11231;50.746;4.272;2024-01-11T01:11:06;44.97;;;21.20;;
22129;SDS011;11231;50.746;4.272;2024-01-11T01:13:32;44.97;;;20.60;;
22129;SDS011;11231;50.746;4.272;2024-01-11T01:15:58;45.10;;;19.37;;
22129;SDS011;11231;50.746;4.272;2024-01-11T01:18:23;44.93;;;19.93;;
22129;SDS011;11231;50.746;4.272;2024-01-11T01:20:50;45.20;;;20.80;;
22129;SDS011;11231;50.746;4.272;2024-01-11T01:23:16;42.47;;;19.80;;
22129;SDS011;11231;50.746;4.272;2024-01-11T01:25:42;45.47;;;20.40;;
22129;SDS011;11231;50.746;4.272;2024-01-11T01:28:08;47.33;;;20.43;;
22129;SDS011;11231;50.746;4.272;2024-01-11T01:30:34;46.43;;;19.73;;
22129;SDS011;11231;50.746;4.272;2024-01-11T01:33:00;47.27;;;20.53;;
22129;SDS011;11231;50.746;4.272;2024-01-11T01:35:26;47.30;;;20.43;;
22129;SDS011;11231;50.746;4.272;2024-01-11T01:37:51;44.37;;;19.97;;
22129;SDS011;11231;50.746;4.272;2024-01-11T01:40:17;46.07;;;19.20;;
22129;SDS011;11231;50.746;4.272;2024-01-11T01:42:43;48.47;;;21.40;;
22129;SDS011;11231;50.746;4.272;2024-01-11T01:45:10;43.93;;;19.80;;
22129;SDS011;11231;50.746;4.272;2024-01-11T01:47:40;42.37;;;19.80;;
22129;SDS011;11231;50.746;4.272;2024-01-11T01:50:07;42.77;;;20.10;;
22129;SDS011;11231;50.746;4.272;2024-01-11T01:52:36;43.37;;;18.33;;
22129;SDS011;11231;50.746;4.272;2024-01-11T01:55:03;46.83;;;20.73;;
22129;SDS011;11231;50.746;4.272;2024-01-11T01:57:30;47.53;;;20.50;;
22129;SDS011;11231;50.746;4.272;2024-01-11T01:59:59;44.17;;;20.00;;
22129;SDS011;11231;50.746;4.272;2024-01-11T02:02:27;42.67;;;19.13;;
22129;SDS011;11231;50.746;4.272;2024-01-11T02:04:55;42.80;;;19.70;;
22129;SDS011;11231;50.746;4.272;2024-01-11T02:07:22;46.83;;;21.10;;
22129;SDS011;11231;50.746;4.272;2024-01-11T02:09:49;44.30;;;20.10;;
22129;SDS011;11231;50.746;4.272;2024-01-11T02:12:16;44.73;;;19.27;;
22129;SDS011;11231;50.746;4.272;2024-01-11T02:14:43;46.40;;;19.37;;
22129;SDS011;11231;50.746;4.272;2024-01-11T02:17:09;48.07;;;20.97;;
22129;SDS011;11231;50.746;4.272;2024-01-11T02:19:36;47.10;;;20.40;;
22129;SDS011;11231;50.746;4.272;2024-01-11T02:22:07;47.00;;;20.43;;
22129;SDS011;11231;50.746;4.272;2024-01-11T02:24:47;39.63;;;18.93;;
22129;SDS011;11231;50.746;4.272;2024-01-11T02:27:13;48.47;;;20.13;;
22129;SDS011;11231;50.746;4.272;2024-01-11T02:29:39;42.63;;;19.37;;
22129;SDS011;11231;50.746;4.272;2024-01-11T02:32:05;50.57;;;20.60;;
22129;SDS011;11231;50.746;4.272;2024-01-11T02:34:31;43.90;;;19.97;;
22129;SDS011;11231;50.746;4.272;2024-01-11T02:36:58;45.63;;;20.80;;
22129;SDS011;11231;50.746;4.272;2024-01-11T02:39:24;45.53;;;19.97;;
22129;SDS011;11231;50.746;4.272;2024-01-11T02:41:51;43.03;;;19.90;;
22129;SDS011;11231;50.746;4.272;2024-01-11T02:44:18;44.83;;;19.70;;
22129;SDS011;11231;50.746;4.272;2024-01-11T02:46:44;41.07;;;19.37;;
22129;SDS011;11231;50.746;4.272;2024-01-11T02:49:09;44.37;;;19.53;;
22129;SDS011;11231;50.746;4.272;2024-01-11T02:51:35;44.33;;;20.77;;
22129;SDS011;11231;50.746;4.272;2024-01-11T02:54:01;45.90;;;20.27;;
22129;SDS011;11231;50.746;4.272;2024-01-11T02:56:27;49.87;;;20.77;;
22129;SDS011;11231;50.746;4.272;2024-01-11T02:58:53;41.43;;;19.57;;
22129;SDS011;11231;50.746;4.272;2024-01-11T03:01:19;43.90;;;20.20;;
22129;SDS011;11231;50.746;4.272;2024-01-11T03:03:45;44.50;;;21.20;;
22129;SDS011;11231;50.746;4.272;2024-01-11T03:06:11;47.67;;;22.07;;
22129;SDS011;11231;50.746;4.272;2024-01-11T03:08:37;46.50;;;21.40;;
22129;SDS011;11231;50.746;4.272;2024-01-11T03:11:02;41.73;;;19.77;;
22129;SDS011;11231;50.746;4.272;2024-01-11T03:13:28;48.83;;;20.73;;
22129;SDS011;11231;50.746;4.272;2024-01-11T03:15:55;41.83;;;20.83;;
22129;SDS011;11231;50.746;4.272;2024-01-11T03:18:22;47.57;;;20.87;;
22129;SDS011;11231;50.746;4.272;2024-01-11T03:20:48;45.23;;;21.13;;
22129;SDS011;11231;50.746;4.272;2024-01-11T03:23:14;47.20;;;22.07;;
22129;SDS011;11231;50.746;4.272;2024-01-11T03:25:39;42.80;;;19.90;;
22129;SDS011;11231;50.746;4.272;2024-01-11T03:28:05;39.33;;;20.07;;
22129;SDS011;11231;50.746;4.272;2024-01-11T03:30:32;48.83;;;21.53;;
22129;SDS011;11231;50.746;4.272;2024-01-11T03:32:57;44.03;;;20.50;;
22129;SDS011;11231;50.746;4.272;2024-01-11T03:35:23;47.23;;;21.23;;
22129;SDS011;11231;50.746;4.272;2024-01-11T03:37:49;43.77;;;20.57;;
22129;SDS011;11231;50.746;4.272;2024-01-11T03:40:15;42.60;;;20.50;;
22129;SDS011;11231;50.746;4.272;2024-01-11T03:42:41;42.83;;;20.00;;
22129;SDS011;11231;50.746;4.272;2024-01-11T03:45:08;50.23;;;21.67;;
22129;SDS011;11231;50.746;4.272;2024-01-11T03:47:34;43.33;;;20.00;;
22129;SDS011;11231;50.746;4.272;2024-01-11T03:50:00;44.37;;;21.23;;
22129;SDS011;11231;50.746;4.272;2024-01-11T03:52:25;46.60;;;21.20;;
22129;SDS011;11231;50.746;4.272;2024-01-11T03:54:51;43.03;;;20.33;;
22129;SDS011;11231;50.746;4.272;2024-01-11T03:57:17;50.60;;;22.10;;
22129;SDS011;11231;50.746;4.272;2024-01-11T03:59:43;45.87;;;19.80;;
22129;SDS011;11231;50.746;4.272;2024-01-11T04:02:10;45.43;;;20.47;;
22129;SDS011;11231;50.746;4.272;2024-01-11T04:04:35;47.27;;;21.10;;
22129;SDS011;11231;50.746;4.272;2024-01-11T04:07:01;46.57;;;20.60;;
22129;SDS011;11231;50.746;4.272;2024-01-11T04:09:28;47.17;;;21.90;;
22129;SDS011;11231;50.746;4.272;2024-01-11T04:11:53;45.07;;;21.43;;
22129;SDS011;11231;50.746;4.272;2024-01-11T04:14:19;47.73;;;21.20;;
22129;SDS011;11231;50.746;4.272;2024-01-11T04:16:45;47.53;;;21.53;;
22129;SDS011;11231;50.746;4.272;2024-01-11T04:19:11;50.95;;;26.35;;
22129;SDS011;11231;50.746;4.272;2024-01-11T04:21:37;47.50;;;22.70;;
22129;SDS011;11231;50.746;4.272;2024-01-11T04:24:06;43.90;;;20.60;;
22129;SDS011;11231;50.746;4.272;2024-01-11T04:26:32;44.57;;;21.50;;
22129;SDS011;11231;50.746;4.272;2024-01-11T04:28:58;45.53;;;20.70;;
22129;SDS011;11231;50.746;4.272;2024-01-11T04:31:25;46.67;;;21.63;;
22129;SDS011;11231;50.746;4.272;2024-01-11T04:33:51;42.47;;;19.83;;
22129;SDS011;11231;50.746;4.272;2024-01-11T04:36:17;43.33;;;20.07;;
22129;SDS011;11231;50.746;4.272;2024-01-11T04:38:43;45.20;;;21.63;;
22129;SDS011;11231;50.746;4.272;2024-01-11T04:41:09;45.70;;;20.30;;
22129;SDS011;11231;50.746;4.272;2024-01-11T04:43:39;52.23;;;21.83;;
22129;SDS011;11231;50.746;4.272;2024-01-11T04:46:15;48.20;;;21.83;;
22129;SDS011;11231;50.746;4.272;2024-01-11T04:48:45;48.37;;;21.33;;
22129;SDS011;11231;50.746;4.272;2024-01-11T04:51:12;47.20;;;21.67;;
22129;SDS011;11231;50.746;4.272;2024-01-11T04:53:41;46.90;;;22.03;;
22129;SDS011;11231;50.746;4.272;2024-01-11T04:56:12;50.57;;;22.07;;
22129;SDS011;11231;50.746;4.272;2024-01-11T04:58:40;49.40;;;21.27;;
22129;SDS011;11231;50.746;4.272;2024-01-11T05:01:07;53.17;;;23.10;;
22129;SDS011;11231;50.746;4.272;2024-01-11T05:03:38;52.33;;;21.63;;
22129;SDS011;11231;50.746;4.272;2024-01-11T05:06:04;46.00;;;21.97;;
22129;SDS011;11231;50.746;4.272;2024-01-11T05:08:30;44.40;;;21.37;;
22129;SDS011;11231;50.746;4.272;2024-01-11T05:10:55;52.40;;;22.40;;
22129;SDS011;11231;50.746;4.272;2024-01-11T05:13:21;52.80;;;23.53;;
22129;SDS011;11231;50.746;4.272;2024-01-11T05:15:47;57.03;;;22.77;;
22129;SDS011;11231;50.746;4.272;2024-01-11T05:18:13;51.20;;;22.20;;
22129;SDS011;11231;50.746;4.272;2024-01-11T05:20:39;43.90;;;21.67;;
22129;SDS011;11231;50.746;4.272;2024-01-11T05:23:05;46.27;;;21.23;;
22129;SDS011;11231;50.746;4.272;2024-01-11T05:25:31;45.30;;;21.23;;
22129;SDS011;11231;50.746;4.272;2024-01-11T05:27:59;49.93;;;20.10;;
22129;SDS011;11231;50.746;4.272;2024-01-11T05:30:25;47.73;;;21.70;;
22129;SDS011;11231;50.746;4.272;2024-01-11T05:32:52;47.20;;;22.67;;
22129;SDS011;11231;50.746;4.272;2024-01-11T05:35:18;46.80;;;21.67;;
22129;SDS011;11231;50.746;4.272;2024-01-11T05:37:44;47.50;;;20.80;;
22129;SDS011;11231;50.746;4.272;2024-01-11T05:40:10;49.53;;;22.00;;
22129;SDS011;11231;50.746;4.272;2024-01-11T05:42:36;45.93;;;21.50;;
22129;SDS011;11231;50.746;4.272;2024-01-11T05:45:06;42.57;;;21.20;;
22129;SDS011;11231;50.746;4.272;2024-01-11T05:47:32;45.23;;;21.43;;
22129;SDS011;11231;50.746;4.272;2024-01-11T05:49:58;45.00;;;21.73;;
22129;SDS011;11231;50.746;4.272;2024-01-11T05:52:23;47.13;;;22.67;;
22129;SDS011;11231;50.746;4.272;2024-01-11T05:54:50;46.23;;;21.70;;
22129;SDS011;11231;50.746;4.272;2024-01-11T05:57:15;53.13;;;22.63;;
22129;SDS011;11231;50.746;4.272;2024-01-11T05:59:44;47.50;;;21.73;;
22129;SDS011;11231;50.746;4.272;2024-01-11T06:02:11;43.03;;;21.20;;
22129;SDS011;11231;50.746;4.272;2024-01-11T06:04:37;48.57;;;23.83;;
22129;SDS011;11231;50.746;4.272;2024-01-11T06:07:03;48.97;;;22.30;;
22129;SDS011;11231;50.746;4.272;2024-01-11T06:09:29;48.83;;;22.90;;
22129;SDS011;11231;50.746;4.272;2024-01-11T06:11:55;43.63;;;22.00;;
22129;SDS011;11231;50.746;4.272;2024-01-11T06:14:21;48.90;;;23.07;;
22129;SDS011;11231;50.746;4.272;2024-01-11T06:16:47;45.20;;;20.07;;
22129;SDS011;11231;50.746;4.272;2024-01-11T06:19:13;46.80;;;21.10;;
22129;SDS011;11231;50.746;4.272;2024-01-11T06:21:38;48.03;;;21.53;;
22129;SDS011;11231;50.746;4.272;2024-01-11T06:24:04;43.73;;;20.83;;
22129;SDS011;11231;50.746;4.272;2024-01-11T06:26:30;43.93;;;21.40;;
22129;SDS011;11231;50.746;4.272;2024-01-11T06:28:56;42.67;;;20.47;;
22129;SDS011;11231;50.746;4.272;2024-01-11T06:31:22;47.20;;;22.47;;
22129;SDS011;11231;50.746;4.272;2024-01-11T06:33:47;51.60;;;22.43;;
22129;SDS011;11231;50.746;4.272;2024-01-11T06:36:13;51.77;;;22.83;;
22129;SDS011;11231;50.746;4.272;2024-01-11T06:38:39;54.00;;;25.63;;
22129;SDS011;11231;50.746;4.272;2024-01-11T06:41:05;60.97;;;27.20;;
22129;SDS011;11231;50.746;4.272;2024-01-11T06:43:31;58.17;;;26.07;;
22129;SDS011;11231;50.746;4.272;2024-01-11T06:45:57;57.53;;;26.90;;
22129;SDS011;11231;50.746;4.272;2024-01-11T06:48:28;52.17;;;24.70;;
22129;SDS011;11231;50.746;4.272;2024-01-11T06:50:54;50.60;;;23.37;;
22129;SDS011;11231;50.746;4.272;2024-01-11T06:53:20;52.63;;;23.53;;
22129;SDS011;11231;50.746;4.272;2024-01-11T06:55:45;56.40;;;23.77;;
22129;SDS011;11231;50.746;4.272;2024-01-11T06:58:13;57.00;;;25.47;;
22129;SDS011;11231;50.746;4.272;2024-01-11T07:00:38;49.83;;;23.47;;
22129;SDS011;11231;50.746;4.272;2024-01-11T07:03:11;50.20;;;24.07;;
22129;SDS011;11231;50.746;4.272;2024-01-11T07:05:37;52.93;;;24.77;;
22129;SDS011;11231;50.746;4.272;2024-01-11T07:08:03;49.90;;;23.20;;
22129;SDS011;11231;50.746;4.272;2024-01-11T07:10:29;49.97;;;23.30;;
22129;SDS011;11231;50.746;4.272;2024-01-11T07:12:55;51.70;;;24.60;;
22129;SDS011;11231;50.746;4.272;2024-01-11T07:15:21;53.87;;;23.77;;
22129;SDS011;11231;50.746;4.272;2024-01-11T07:17:47;50.63;;;23.67;;
22129;SDS011;11231;50.746;4.272;2024-01-11T07:20:13;56.00;;;24.83;;
22129;SDS011;11231;50.746;4.272;2024-01-11T07:22:41;53.80;;;23.57;;
22129;SDS011;11231;50.746;4.272;2024-01-11T07:25:07;52.93;;;24.13;;
22129;SDS011;11231;50.746;4.272;2024-01-11T07:27:33;50.57;;;23.73;;
22129;SDS011;11231;50.746;4.272;2024-01-11T07:30:00;52.43;;;24.13;;
22129;SDS011;11231;50.746;4.272;2024-01-11T07:32:27;51.37;;;24.00;;
22129;SDS011;11231;50.746;4.272;2024-01-11T07:34:53;54.87;;;24.43;;
22129;SDS011;11231;50.746;4.272;2024-01-11T07:37:19;56.00;;;25.53;;
22129;SDS011;11231;50.746;4.272;2024-01-11T07:39:45;48.23;;;23.57;;
22129;SDS011;11231;50.746;4.272;2024-01-11T07:42:11;52.53;;;23.97;;
22129;SDS011;11231;50.746;4.272;2024-01-11T07:44:37;54.23;;;24.87;;
22129;SDS011;11231;50.746;4.272;2024-01-11T07:47:02;59.37;;;25.03;;
22129;SDS011;11231;50.746;4.272;2024-01-11T07:49:28;54.70;;;23.87;;
22129;SDS011;11231;50.746;4.272;2024-01-11T07:51:54;60.73;;;26.47;;
22129;SDS011;11231;50.746;4.272;2024-01-11T07:54:20;55.37;;;24.30;;
22129;SDS011;11231;50.746;4.272;2024-01-11T07:56:46;51.23;;;23.43;;
22129;SDS011;11231;50.746;4.272;2024-01-11T07:59:12;57.17;;;25.97;;
22129;SDS011;11231;50.746;4.272;2024-01-11T08:01:39;58.77;;;25.50;;
22129;SDS011;11231;50.746;4.272;2024-01-11T08:04:06;52.77;;;25.20;;
22129;SDS011;11231;50.746;4.272;2024-01-11T08:06:32;54.53;;;24.90;;
22129;SDS011;11231;50.746;4.272;2024-01-11T08:08:58;56.40;;;24.93;;
22129;SDS011;11231;50.746;4.272;2024-01-11T08:11:23;55.87;;;26.43;;
22129;SDS011;11231;50.746;4.272;2024-01-11T08:13:49;56.67;;;23.50;;
22129;SDS011;11231;50.746;4.272;2024-01-11T08:16:16;60.23;;;25.57;;
22129;SDS011;11231;50.746;4.272;2024-01-11T08:18:43;52.97;;;24.90;;
22129;SDS011;11231;50.746;4.272;2024-01-11T08:21:10;56.17;;;25.40;;
22129;SDS011;11231;50.746;4.272;2024-01-11T08:23:42;53.20;;;24.67;;
22129;SDS011;11231;50.746;4.272;2024-01-11T08:26:12;56.83;;;25.87;;
22129;SDS011;11231;50.746;4.272;2024-01-11T08:28:39;55.17;;;25.20;;
22129;SDS011;11231;50.746;4.272;2024-01-11T08:31:05;52.00;;;24.00;;
22129;SDS011;11231;50.746;4.272;2024-01-11T08:33:31;54.63;;;26.27;;
22129;SDS011;11231;50.746;4.272;2024-01-11T08:36:01;56.57;;;24.67;;
22129;SDS011;11231;50.746;4.272;2024-01-11T08:38:29;54.13;;;24.50;;
22129;SDS011;11231;50.746;4.272;2024-01-11T08:40:55;58.60;;;25.60;;
22129;SDS011;11231;50.746;4.272;2024-01-11T08:43:21;54.77;;;24.43;;
22129;SDS011;11231;50.746;4.272;2024-01-11T08:45:46;59.33;;;25.70;;
22129;SDS011;11231;50.746;4.272;2024-01-11T08:48:13;54.17;;;26.13;;
22129;SDS011;11231;50.746;4.272;2024-01-11T08:50:39;52.80;;;26.00;;
22129;SDS011;11231;50.746;4.272;2024-01-11T08:53:04;60.30;;;27.77;;
22129;SDS011;11231;50.746;4.272;2024-01-11T08:55:30;62.70;;;27.00;;
22129;SDS011;11231;50.746;4.272;2024-01-11T08:57:56;60.43;;;27.53;;
22129;SDS011;11231;50.746;4.272;2024-01-11T09:00:22;57.87;;;26.83;;
22129;SDS011;11231;50.746;4.272;2024-01-11T09:02:48;57.07;;;26.10;;
22129;SDS011;11231;50.746;4.272;2024-01-11T09:05:14;57.97;;;26.70;;
22129;SDS011;11231;50.746;4.272;2024-01-11T09:07:40;57.47;;;27.37;;
22129;SDS011;11231;50.746;4.272;2024-01-11T09:10:06;62.03;;;26.80;;
22129;SDS011;11231;50.746;4.272;2024-01-11T09:12:39;69.10;;;28.03;;
22129;SDS011;11231;50.746;4.272;2024-01-11T09:15:05;59.43;;;27.53;;
22129;SDS011;11231;50.746;4.272;2024-01-11T09:17:31;60.67;;;27.30;;
22129;SDS011;11231;50.746;4.272;2024-01-11T09:19:57;67.00;;;29.97;;
22129;SDS011;11231;50.746;4.272;2024-01-11T09:22:23;63.97;;;29.20;;
22129;SDS011;11231;50.746;4.272;2024-01-11T09:24:49;61.67;;;26.93;;
22129;SDS011;11231;50.746;4.272;2024-01-11T09:27:15;60.10;;;26.83;;
22129;SDS011;11231;50.746;4.272;2024-01-11T09:29:44;62.33;;;28.07;;
22129;SDS011;11231;50.746;4.272;2024-01-11T09:32:10;63.17;;;28.27;;
22129;SDS011;11231;50.746;4.272;2024-01-11T09:34:37;65.33;;;28.73;;
22129;SDS011;11231;50.746;4.272;2024-01-11T09:37:03;64.90;;;29.13;;
22129;SDS011;11231;50.746;4.272;2024-01-11T09:39:29;59.83;;;27.57;;
22129;SDS011;11231;50.746;4.272;2024-01-11T09:41:58;59.43;;;28.27;;
22129;SDS011;11231;50.746;4.272;2024-01-11T09:44:37;59.30;;;27.87;;
22129;SDS011;11231;50.746;4.272;2024-01-11T09:47:06;62.27;;;29.37;;
22129;SDS011;11231;50.746;4.272;2024-01-11T09:49:35;56.90;;;27.60;;
22129;SDS011;11231;50.746;4.272;2024-01-11T09:52:03;57.60;;;27.00;;
22129;SDS011;11231;50.746;4.272;2024-01-11T09:54:30;58.87;;;27.53;;
22129;SDS011;11231;50.746;4.272;2024-01-11T09:56:57;58.43;;;27.73;;
22129;SDS011;11231;50.746;4.272;2024-01-11T09:59:25;61.27;;;27.83;;
22129;SDS011;11231;50.746;4.272;2024-01-11T10:01:51;62.17;;;27.87;;
22129;SDS011;11231;50.746;4.272;2024-01-11T10:04:18;63.87;;;27.43;;
22129;SDS011;11231;50.746;4.272;2024-01-11T10:06:44;55.17;;;26.07;;
22129;SDS011;11231;50.746;4.272;2024-01-11T10:09:10;57.47;;;27.47;;
22129;SDS011;11231;50.746;4.272;2024-01-11T10:11:36;60.53;;;26.77;;
22129;SDS011;11231;50.746;4.272;2024-01-11T10:14:03;57.67;;;27.53;;
22129;SDS011;11231;50.746;4.272;2024-01-11T10:16:30;54.77;;;27.60;;
22129;SDS011;11231;50.746;4.272;2024-01-11T10:18:56;53.13;;;26.57;;
22129;SDS011;11231;50.746;4.272;2024-01-11T10:21:23;56.77;;;27.50;;
22129;SDS011;11231;50.746;4.272;2024-01-11T10:23:49;52.20;;;25.53;;
22129;SDS011;11231;50.746;4.272;2024-01-11T10:26:15;58.10;;;26.90;;
22129;SDS011;11231;50.746;4.272;2024-01-11T10:28:44;50.53;;;24.53;;
22129;SDS011;11231;50.746;4.272;2024-01-11T10:31:10;48.67;;;24.43;;
22129;SDS011;11231;50.746;4.272;2024-01-11T10:33:37;49.70;;;25.03;;
22129;SDS011;11231;50.746;4.272;2024-01-11T10:36:03;49.03;;;24.43;;
22129;SDS011;11231;50.746;4.272;2024-01-11T10:38:33;46.07;;;24.87;;
22129;SDS011;11231;50.746;4.272;2024-01-11T10:41:02;48.00;;;25.23;;
22129;SDS011;11231;50.746;4.272;2024-01-11T10:43:31;49.80;;;25.30;;
22129;SDS011;11231;50.746;4.272;2024-01-11T10:46:02;45.23;;;25.77;;
22129;SDS011;11231;50.746;4.272;2024-01-11T10:48:33;43.63;;;24.80;;
22129;SDS011;11231;50.746;4.272;2024-01-11T10:51:08;45.80;;;26.73;;
22129;SDS011;11231;50.746;4.272;2024-01-11T10:56:13;43.93;;;25.80;;
22129;SDS011;11231;50.746;4.272;2024-01-11T10:58:41;46.77;;;27.77;;
22129;SDS011;11231;50.746;4.272;2024-01-11T11:01:08;49.07;;;27.67;;
22129;SDS011;11231;50.746;4.272;2024-01-11T11:03:36;50.13;;;28.20;;
22129;SDS011;11231;50.746;4.272;2024-01-11T11:06:04;46.27;;;26.23;;
22129;SDS011;11231;50.746;4.272;2024-01-11T11:08:34;44.83;;;25.90;;
22129;SDS011;11231;50.746;4.272;2024-01-11T11:11:02;49.67;;;27.43;;
22129;SDS011;11231;50.746;4.272;2024-01-11T11:13:33;50.40;;;26.03;;
22129;SDS011;11231;50.746;4.272;2024-01-11T11:16:02;46.20;;;26.87;;
22129;SDS011;11231;50.746;4.272;2024-01-11T11:18:31;46.80;;;24.90;;
22129;SDS011;11231;50.746;4.272;2024-01-11T11:21:00;47.50;;;25.93;;
22129;SDS011;11231;50.746;4.272;2024-01-11T11:23:26;49.60;;;26.47;;
22129;SDS011;11231;50.746;4.272;2024-01-11T11:25:53;47.83;;;26.23;;
22129;SDS011;11231;50.746;4.272;2024-01-11T11:28:22;46.47;;;23.87;;
22129;SDS011;11231;50.746;4.272;2024-01-11T11:30:48;47.43;;;26.07;;
22129;SDS011;11231;50.746;4.272;2024-01-11T11:33:25;48.47;;;26.13;;
22129;SDS011;11231;50.746;4.272;2024-01-11T11:35:59;45.67;;;24.70;;
22129;SDS011;11231;50.746;4.272;2024-01-11T11:38:29;47.67;;;26.30;;
22129;SDS011;11231;50.746;4.272;2024-01-11T11:40:56;46.07;;;25.43;;
22129;SDS011;11231;50.746;4.272;2024-01-11T11:43:24;50.03;;;26.23;;
22129;SDS011;11231;50.746;4.272;2024-01-11T11:45:52;47.47;;;24.00;;
22129;SDS011;11231;50.746;4.272;2024-01-11T11:53:34;45.43;;;24.87;;
22129;SDS011;11231;50.746;4.272;2024-01-11T11:56:01;41.37;;;24.67;;
22129;SDS011;11231;50.746;4.272;2024-01-11T11:58:31;46.30;;;23.83;;
22129;SDS011;11231;50.746;4.272;2024-01-11T12:00:58;41.00;;;23.00;;
22129;SDS011;11231;50.746;4.272;2024-01-11T12:03:31;40.67;;;22.90;;
22129;SDS011;11231;50.746;4.272;2024-01-11T12:05:59;45.23;;;24.00;;
22129;SDS011;11231;50.746;4.272;2024-01-11T12:08:25;43.20;;;23.83;;
22129;SDS011;11231;50.746;4.272;2024-01-11T12:10:51;42.77;;;24.17;;
22129;SDS011;11231;50.746;4.272;2024-01-11T12:13:17;43.97;;;22.90;;
22129;SDS011;11231;50.746;4.272;2024-01-11T12:15:43;45.50;;;23.33;;
22129;SDS011;11231;50.746;4.272;2024-01-11T12:18:09;42.37;;;23.20;;
22129;SDS011;11231;50.746;4.272;2024-01-11T12:20:35;44.07;;;23.63;;
22129;SDS011;11231;50.746;4.272;2024-01-11T12:23:01;44.20;;;22.93;;
22129;SDS011;11231;50.746;4.272;2024-01-11T12:25:28;42.17;;;22.93;;
22129;SDS011;11231;50.746;4.272;2024-01-11T12:27:54;44.73;;;23.33;;
22129;SDS011;11231;50.746;4.272;2024-01-11T12:30:25;42.40;;;22.57;;
22129;SDS011;11231;50.746;4.272;2024-01-11T12:32:52;42.80;;;22.97;;
22129;SDS011;11231;50.746;4.272;2024-01-11T12:35:19;42.53;;;22.33;;
22129;SDS011;11231;50.746;4.272;2024-01-11T12:37:55;40.43;;;22.27;;
22129;SDS011;11231;50.746;4.272;2024-01-11T12:40:23;39.30;;;21.27;;
22129;SDS011;11231;50.746;4.272;2024-01-11T12:42:49;40.20;;;21.63;;
22129;SDS011;11231;50.746;4.272;2024-01-11T12:45:16;38.47;;;20.80;;
22129;SDS011;11231;50.746;4.272;2024-01-11T12:47:42;42.73;;;21.73;;
22129;SDS011;11231;50.746;4.272;2024-01-11T12:50:09;35.73;;;19.97;;
22129;SDS011;11231;50.746;4.272;2024-01-11T12:52:37;41.93;;;21.30;;
22129;SDS011;11231;50.746;4.272;2024-01-11T12:55:05;38.77;;;20.67;;
22129;SDS011;11231;50.746;4.272;2024-01-11T12:57:33;38.23;;;19.73;;
22129;SDS011;11231;50.746;4.272;2024-01-11T13:00:11;36.97;;;19.70;;
22129;SDS011;11231;50.746;4.272;2024-01-11T13:02:38;35.80;;;18.70;;
22129;SDS011;11231;50.746;4.272;2024-01-11T13:05:05;36.37;;;20.07;;
22129;SDS011;11231;50.746;4.272;2024-01-11T13:07:36;41.03;;;19.23;;
22129;SDS011;11231;50.746;4.272;2024-01-11T13:10:02;38.00;;;19.47;;
22129;SDS011;11231;50.746;4.272;2024-01-11T13:12:29;38.70;;;17.47;;
22129;SDS011;11231;50.746;4.272;2024-01-11T13:14:55;35.83;;;17.80;;
22129;SDS011;11231;50.746;4.272;2024-01-11T13:17:21;37.53;;;18.43;;
22129;SDS011;11231;50.746;4.272;2024-01-11T13:19:47;34.80;;;19.57;;
22129;SDS011;11231;50.746;4.272;2024-01-11T13:22:13;40.27;;;18.83;;
22129;SDS011;11231;50.746;4.272;2024-01-11T13:24:38;36.33;;;18.30;;
22129;SDS011;11231;50.746;4.272;2024-01-11T13:27:04;38.60;;;18.60;;
22129;SDS011;11231;50.746;4.272;2024-01-11T13:29:30;36.07;;;18.40;;
22129;SDS011;11231;50.746;4.272;2024-01-11T13:31:56;37.43;;;18.83;;
22129;SDS011;11231;50.746;4.272;2024-01-11T13:34:21;38.77;;;18.27;;
22129;SDS011;11231;50.746;4.272;2024-01-11T13:36:48;41.00;;;18.37;;
22129;SDS011;11231;50.746;4.272;2024-01-11T13:39:14;34.80;;;18.27;;
22129;SDS011;11231;50.746;4.272;2024-01-11T13:41:43;37.40;;;17.50;;
22129;SDS011;11231;50.746;4.272;2024-01-11T13:44:09;38.57;;;18.37;;
22129;SDS011;11231;50.746;4.272;2024-01-11T13:46:36;39.17;;;18.30;;
22129;SDS011;11231;50.746;4.272;2024-01-11T13:49:03;36.73;;;18.67;;
22129;SDS011;11231;50.746;4.272;2024-01-11T13:51:29;36.00;;;19.23;;
22129;SDS011;11231;50.746;4.272;2024-01-11T13:53:57;39.03;;;18.43;;
22129;SDS011;11231;50.746;4.272;2024-01-11T13:56:24;35.00;;;17.40;;
22129;SDS011;11231;50.746;4.272;2024-01-11T13:58:50;36.60;;;18.57;;
22129;SDS011;11231;50.746;4.272;2024-01-11T14:01:16;33.87;;;16.87;;
22129;SDS011;11231;50.746;4.272;2024-01-11T14:03:42;34.97;;;17.40;;
22129;SDS011;11231;50.746;4.272;2024-01-11T14:06:07;36.90;;;17.43;;
22129;SDS011;11231;50.746;4.272;2024-01-11T14:08:34;32.93;;;16.10;;
22129;SDS011;11231;50.746;4.272;2024-01-11T14:11:00;36.23;;;18.20;;
22129;SDS011;11231;50.746;4.272;2024-01-11T14:13:26;33.53;;;17.00;;
22129;SDS011;11231;50.746;4.272;2024-01-11T14:15:52;33.03;;;17.53;;
22129;SDS011;11231;50.746;4.272;2024-01-11T14:18:19;32.97;;;16.47;;
22129;SDS011;11231;50.746;4.272;2024-01-11T14:20:48;36.83;;;16.50;;
22129;SDS011;11231;50.746;4.272;2024-01-11T14:23:14;38.67;;;17.80;;
22129;SDS011;11231;50.746;4.272;2024-01-11T14:25:39;36.67;;;18.13;;